Columbus, New Jersey
Current Conditions -  °F | °C
As of 9:31 PM on Monday 22 Dec 2014 (Local Time) from KWRI Reporting Station
Overcast Overcast  
Wind Chill: 38°   Ceiling: 1800
Heat Index: 41°   Visibility: 8mi
Dew Point: 41°   Wind: 5mph
Humidity: 100%   Direction: 30°NNE
Pressure: 30.15"   Gusts: NA
Location:  40.07°N, 74.72°W
Report Text: KWRI 230231Z AUTO 03004KT 8SM R06/5500FT SCT013 BKN018 OVC065 05/05 A3015 RMK AO2 RAB0201E0222 CIG 012 RWY24
Loading
Personal Weather Stations






























Interactive Weather Map New forecast layout! Learn more

10-Day Weather Forecast

Advertisements
Track Severe Weather on mobile